createdAt,value
2022-11-15T00:00:21.739Z,0.00
2022-11-15T00:01:21.879Z,0.00
2022-11-15T00:02:22.033Z,0.00
2022-11-15T00:03:22.093Z,0.00
2022-11-15T00:04:22.234Z,0.00
2022-11-15T00:05:22.365Z,0.00
2022-11-15T00:06:22.547Z,0.00
2022-11-15T00:07:53.466Z,0.00
2022-11-15T00:08:23.782Z,0.00
2022-11-15T00:09:22.892Z,0.00
2022-11-15T00:10:23.052Z,0.00
2022-11-15T00:11:23.142Z,0.00
2022-11-15T00:12:23.331Z,0.00
2022-11-15T00:13:23.408Z,0.00
2022-11-15T00:14:23.561Z,0.00
2022-11-15T00:15:23.642Z,0.00
2022-11-15T00:16:23.829Z,0.00
2022-11-15T00:17:23.910Z,0.00
2022-11-15T00:18:24.082Z,0.00
2022-11-15T00:19:24.173Z,0.00
2022-11-15T00:20:24.299Z,0.00
2022-11-15T00:21:24.530Z,0.00
2022-11-15T00:22:24.571Z,0.00
2022-11-15T00:23:24.663Z,0.00
2022-11-15T00:24:24.762Z,0.00
2022-11-15T00:25:24.919Z,0.00
2022-11-15T00:26:25.065Z,0.00
2022-11-15T00:27:25.138Z,0.00
2022-11-15T00:28:25.280Z,0.00
2022-11-15T00:29:25.450Z,0.00
2022-11-15T00:30:25.561Z,0.00
2022-11-15T00:31:25.716Z,0.00
2022-11-15T00:32:25.828Z,0.00
2022-11-15T00:33:25.981Z,0.00
2022-11-15T00:34:26.087Z,0.00
2022-11-15T00:35:26.237Z,0.00
2022-11-15T00:36:26.418Z,0.00
2022-11-15T00:37:26.502Z,0.00
2022-11-15T00:38:26.637Z,0.00
2022-11-15T00:39:26.826Z,0.00
2022-11-15T00:40:26.914Z,0.00
2022-11-15T00:41:27.076Z,0.00
2022-11-15T00:42:27.188Z,0.00
2022-11-15T00:43:27.312Z,0.00
2022-11-15T00:44:27.409Z,0.00
2022-11-15T00:45:27.553Z,0.00
2022-11-15T00:46:27.774Z,0.00
2022-11-15T00:47:27.806Z,0.00
2022-11-15T00:48:27.964Z,0.00
2022-11-15T00:49:28.076Z,0.00
2022-11-15T00:50:28.201Z,0.00
2022-11-15T00:51:28.377Z,0.00
2022-11-15T00:52:28.501Z,0.00
2022-11-15T00:53:28.899Z,0.00
2022-11-15T00:54:28.672Z,0.00
2022-11-15T00:55:28.820Z,0.00
2022-11-15T00:56:29.018Z,0.00
2022-11-15T00:57:29.121Z,0.00
2022-11-15T00:58:29.243Z,0.00
2022-11-15T00:59:29.382Z,0.00
2022-11-15T01:00:29.578Z,0.00
2022-11-15T01:01:29.700Z,0.00
2022-11-15T01:02:29.782Z,0.00
2022-11-15T01:03:30.209Z,0.00
2022-11-15T01:04:30.035Z,0.00
2022-11-15T01:05:30.202Z,0.00
2022-11-15T01:06:30.410Z,0.00
2022-11-15T01:07:30.498Z,0.00
2022-11-15T01:08:30.560Z,0.00
2022-11-15T01:09:30.671Z,0.00
2022-11-15T01:10:30.813Z,0.00
2022-11-15T01:11:30.959Z,0.00
2022-11-15T01:12:31.068Z,0.00
2022-11-15T01:13:31.564Z,0.00
2022-11-15T01:14:31.328Z,0.00
2022-11-15T01:15:31.449Z,0.00
2022-11-15T01:16:31.622Z,0.00
2022-11-15T01:17:31.698Z,0.00
2022-11-15T01:18:31.868Z,0.00
2022-11-15T01:19:31.959Z,0.00
2022-11-15T01:20:32.095Z,0.00
2022-11-15T01:21:32.258Z,0.00
2022-11-15T01:22:32.365Z,0.00
2022-11-15T01:23:32.819Z,0.00
2022-11-15T01:24:32.648Z,0.00
2022-11-15T01:25:32.787Z,0.00
2022-11-15T01:26:32.955Z,0.00
2022-11-15T01:27:33.002Z,0.00
2022-11-15T01:28:33.163Z,0.00
2022-11-15T01:29:33.267Z,0.00
2022-11-15T01:30:33.416Z,0.00
2022-11-15T01:31:33.534Z,0.00
2022-11-15T01:32:33.659Z,0.00
2022-11-15T01:33:33.986Z,0.00
2022-11-15T01:34:33.865Z,0.00
2022-11-15T01:35:34.014Z,0.00
2022-11-15T01:36:34.173Z,0.00
2022-11-15T01:37:34.283Z,0.00
2022-11-15T01:38:34.411Z,0.00
2022-11-15T01:39:34.556Z,0.00
2022-11-15T01:40:34.718Z,0.00
2022-11-15T01:41:34.838Z,0.00
2022-11-15T01:42:34.938Z,0.00
2022-11-15T01:43:35.149Z,0.00
2022-11-15T01:44:35.189Z,0.00
2022-11-15T01:45:35.353Z,0.00
2022-11-15T01:46:35.550Z,0.00
2022-11-15T01:47:35.570Z,0.00
2022-11-15T01:48:35.730Z,0.00
2022-11-15T01:49:35.860Z,0.00
2022-11-15T01:50:35.992Z,0.00
2022-11-15T01:51:36.079Z,0.00
2022-11-15T01:52:36.211Z,0.00
2022-11-15T01:53:36.354Z,0.00
2022-11-15T01:54:36.489Z,0.00
2022-11-15T01:55:36.637Z,0.00
2022-11-15T01:56:36.731Z,0.00
2022-11-15T01:57:36.869Z,0.00
2022-11-15T01:58:37.019Z,0.00
2022-11-15T01:59:37.119Z,0.00
2022-11-15T02:00:37.351Z,0.00
2022-11-15T02:01:37.386Z,0.00
2022-11-15T02:02:37.532Z,0.00
2022-11-15T02:03:37.688Z,0.00
2022-11-15T02:04:37.791Z,0.00
2022-11-15T02:05:37.938Z,0.00
2022-11-15T02:06:38.077Z,0.00
2022-11-15T02:07:38.147Z,0.00
2022-11-15T02:08:38.303Z,0.00
2022-11-15T02:09:38.395Z,0.00
2022-11-15T02:10:38.536Z,0.00
2022-11-15T02:11:38.680Z,0.00
2022-11-15T02:12:38.821Z,0.00
2022-11-15T02:13:38.973Z,0.00
2022-11-15T02:14:39.064Z,0.00
2022-11-15T02:15:39.263Z,0.00
2022-11-15T02:16:39.365Z,0.00
2022-11-15T02:17:39.493Z,0.00
2022-11-15T02:18:39.653Z,0.00
2022-11-15T02:19:39.733Z,0.00
2022-11-15T02:20:39.903Z,0.00
2022-11-15T02:21:40.036Z,0.00
2022-11-15T02:22:40.132Z,0.00
2022-11-15T02:23:40.274Z,0.00
2022-11-15T02:24:40.395Z,0.00
2022-11-15T02:25:40.593Z,0.00
2022-11-15T02:26:40.725Z,0.00
2022-11-15T02:27:40.812Z,0.00
2022-11-15T02:28:40.950Z,0.00
2022-11-15T02:29:41.124Z,0.00
2022-11-15T02:30:41.211Z,0.00
2022-11-15T02:31:41.380Z,0.00
2022-11-15T02:32:41.479Z,0.00
2022-11-15T02:33:41.602Z,0.00
2022-11-15T02:34:41.730Z,0.00
2022-11-15T02:35:41.901Z,0.00
2022-11-15T02:36:42.038Z,0.00
2022-11-15T02:37:42.127Z,0.00
2022-11-15T02:38:42.259Z,0.00
2022-11-15T02:39:42.379Z,0.00
2022-11-15T02:40:42.631Z,0.00
2022-11-15T02:41:42.658Z,0.00
2022-11-15T02:42:42.779Z,0.00
2022-11-15T02:43:42.912Z,0.00
2022-11-15T02:44:43.048Z,0.00
2022-11-15T02:45:43.266Z,0.00
2022-11-15T02:46:43.436Z,0.00
2022-11-15T02:47:43.440Z,0.00
2022-11-15T02:48:43.607Z,0.00
2022-11-15T02:49:44.668Z,0.00
2022-11-15T02:50:43.865Z,0.00
2022-11-15T02:51:43.976Z,0.00
2022-11-15T02:52:44.148Z,0.00
2022-11-15T02:53:44.229Z,0.00
2022-11-15T02:54:44.381Z,0.00
2022-11-15T02:55:44.528Z,0.00
2022-11-15T02:56:44.634Z,0.00
2022-11-15T02:57:44.763Z,0.00
2022-11-15T02:58:44.893Z,0.00
2022-11-15T02:59:45.017Z,0.00
2022-11-15T03:00:45.236Z,0.00
2022-11-15T03:01:45.323Z,0.00
2022-11-15T03:02:45.436Z,0.00
2022-11-15T03:03:45.566Z,0.00
2022-11-15T03:04:45.693Z,0.00
2022-11-15T03:05:45.981Z,0.00
2022-11-15T03:06:46.125Z,0.00
2022-11-15T03:07:46.105Z,0.00
2022-11-15T03:08:46.244Z,0.00
2022-11-15T03:09:46.380Z,0.00
2022-11-15T03:10:46.563Z,0.00
2022-11-15T03:11:46.679Z,0.00
2022-11-15T03:12:46.791Z,0.00
2022-11-15T03:13:46.916Z,0.00
2022-11-15T03:14:47.011Z,0.00
2022-11-15T03:15:47.122Z,0.00
2022-11-15T03:16:47.343Z,0.00
2022-11-15T03:17:47.410Z,0.00
2022-11-15T03:18:47.537Z,0.00
2022-11-15T03:19:47.620Z,0.00
2022-11-15T03:20:47.760Z,0.00
2022-11-15T03:21:47.928Z,0.00
2022-11-15T03:22:48.035Z,0.00
2022-11-15T03:23:48.167Z,0.00
2022-11-15T03:24:48.298Z,0.00
2022-11-15T03:25:48.455Z,0.00
2022-11-15T03:26:48.755Z,0.00
2022-11-15T03:27:48.686Z,0.00
2022-11-15T03:28:48.801Z,0.00
2022-11-15T03:29:48.927Z,0.00
2022-11-15T03:30:49.120Z,0.00
2022-11-15T03:31:50.858Z,0.00
2022-11-15T03:32:49.317Z,0.00
2022-11-15T03:33:49.446Z,0.00
2022-11-15T03:34:49.574Z,0.00
2022-11-15T03:35:49.706Z,0.00
2022-11-15T03:36:49.882Z,0.00
2022-11-15T03:37:50.047Z,0.00
2022-11-15T03:38:50.111Z,0.00
2022-11-15T03:39:50.227Z,0.00
2022-11-15T03:40:50.410Z,0.00
2022-11-15T03:41:50.498Z,0.00
2022-11-15T03:42:50.667Z,0.00
2022-11-15T03:43:50.771Z,0.00
2022-11-15T03:44:50.905Z,0.00
2022-11-15T03:45:51.173Z,0.00
2022-11-15T03:46:51.224Z,0.00
2022-11-15T03:47:51.334Z,0.00
2022-11-15T03:48:51.443Z,0.00
2022-11-15T03:49:51.534Z,0.00
2022-11-15T03:50:51.710Z,0.00
2022-11-15T03:51:51.804Z,0.00
2022-11-15T03:52:51.960Z,0.00
2022-11-15T03:53:52.091Z,0.00
2022-11-15T03:54:52.232Z,0.00
2022-11-15T03:55:52.405Z,0.00
2022-11-15T03:56:52.491Z,0.00
2022-11-15T03:57:52.621Z,0.00
2022-11-15T03:58:52.758Z,0.00
2022-11-15T03:59:52.895Z,0.00
2022-11-15T04:00:53.099Z,0.00
2022-11-15T04:01:53.170Z,0.00
2022-11-15T04:02:53.261Z,0.00
2022-11-15T04:03:53.436Z,0.00
2022-11-15T04:04:53.548Z,0.00
2022-11-15T04:05:53.835Z,0.00
2022-11-15T04:06:53.870Z,0.00
2022-11-15T04:07:53.941Z,0.00
2022-11-15T04:08:54.058Z,0.00
2022-11-15T04:09:54.185Z,0.00
2022-11-15T04:10:54.349Z,0.00
2022-11-15T04:11:54.491Z,0.00
2022-11-15T04:12:54.655Z,0.00
2022-11-15T04:13:54.749Z,0.00
2022-11-15T04:14:54.884Z,0.00
2022-11-15T04:15:55.032Z,0.00
2022-11-15T04:16:55.129Z,0.00
2022-11-15T04:17:55.276Z,0.00
2022-11-15T04:18:55.406Z,0.00
2022-11-15T04:19:55.537Z,0.00
2022-11-15T04:20:55.673Z,0.00
2022-11-15T04:21:55.833Z,0.00
2022-11-15T04:22:55.938Z,0.00
2022-11-15T04:23:56.055Z,0.00
2022-11-15T04:24:56.184Z,0.00
2022-11-15T04:25:56.325Z,0.00
2022-11-15T04:26:56.585Z,0.00
2022-11-15T04:27:56.567Z,0.00
2022-11-15T04:28:56.714Z,0.00
2022-11-15T04:29:56.864Z,0.00
2022-11-15T04:30:56.994Z,0.00
2022-11-15T04:31:57.132Z,0.00
2022-11-15T04:32:57.265Z,0.00
2022-11-15T04:33:57.426Z,0.00
2022-11-15T04:34:57.540Z,0.00
2022-11-15T04:35:57.672Z,0.00
2022-11-15T04:36:57.846Z,0.00
2022-11-15T04:37:57.937Z,0.00
2022-11-15T04:38:58.072Z,0.00
2022-11-15T04:39:58.191Z,0.00
2022-11-15T04:40:58.362Z,0.00
2022-11-15T04:41:58.510Z,0.00
2022-11-15T04:43:03.611Z,0.00
2022-11-15T04:43:59.701Z,0.00
2022-11-15T04:44:58.841Z,0.00
2022-11-15T04:45:58.985Z,0.00
2022-11-15T04:46:59.161Z,0.00
2022-11-15T04:47:59.262Z,0.00
2022-11-15T04:48:59.620Z,0.00
2022-11-15T04:49:59.514Z,0.00
2022-11-15T04:50:59.668Z,0.00
2022-11-15T04:51:59.748Z,0.00
2022-11-15T04:52:59.930Z,0.00
2022-11-15T04:54:00.043Z,0.00
2022-11-15T04:55:05.070Z,0.00
2022-11-15T04:56:01.257Z,0.00
2022-11-15T04:57:00.377Z,0.00
2022-11-15T04:58:00.587Z,0.00
2022-11-15T04:59:00.672Z,0.00
2022-11-15T05:00:00.784Z,0.00
2022-11-15T05:01:00.934Z,0.00
2022-11-15T05:02:01.006Z,0.00
2022-11-15T05:03:01.171Z,0.00
2022-11-15T05:04:01.299Z,0.00
2022-11-15T05:05:01.448Z,0.00
2022-11-15T05:06:01.544Z,0.00
2022-11-15T05:07:01.797Z,0.00
2022-11-15T05:08:01.778Z,0.00
2022-11-15T05:09:01.914Z,0.00
2022-11-15T05:10:02.162Z,0.00
2022-11-15T05:11:02.187Z,0.00
2022-11-15T05:12:02.330Z,0.00
2022-11-15T05:13:02.425Z,0.00
2022-11-15T05:14:02.579Z,0.00
2022-11-15T05:15:02.715Z,0.00
2022-11-15T05:16:02.822Z,0.00
2022-11-15T05:17:02.972Z,0.00
2022-11-15T05:18:03.091Z,0.00
2022-11-15T05:19:03.253Z,0.00
2022-11-15T05:20:03.346Z,0.00
2022-11-15T05:21:03.495Z,0.00
2022-11-15T05:22:03.680Z,0.00
2022-11-15T05:23:03.781Z,0.00
2022-11-15T05:24:03.925Z,0.00
2022-11-15T05:25:04.029Z,0.00
2022-11-15T05:26:09.004Z,0.00
2022-11-15T05:27:05.389Z,0.00
2022-11-15T05:28:04.435Z,0.00
2022-11-15T05:29:04.552Z,0.00
2022-11-15T05:30:04.768Z,0.00
2022-11-15T05:31:04.804Z,0.00
2022-11-15T05:32:04.960Z,0.00
2022-11-15T05:33:05.099Z,0.00
2022-11-15T05:34:06.139Z,0.00
2022-11-15T05:35:05.330Z,0.00
2022-11-15T05:36:05.447Z,0.00
2022-11-15T05:37:05.589Z,0.00
2022-11-15T05:38:05.672Z,0.00
2022-11-15T05:39:05.857Z,0.00
2022-11-15T05:40:05.937Z,0.00
2022-11-15T05:41:06.090Z,0.00
2022-11-15T05:42:06.304Z,0.00
2022-11-15T05:43:06.370Z,0.00
2022-11-15T05:44:06.521Z,0.00
2022-11-15T05:45:06.657Z,0.00
2022-11-15T05:46:06.787Z,0.00
2022-11-15T05:47:07.078Z,0.00
2022-11-15T05:48:07.078Z,0.00
2022-11-15T05:49:07.187Z,0.00
2022-11-15T05:50:07.425Z,0.00
2022-11-15T05:51:07.405Z,0.00
2022-11-15T05:52:07.519Z,0.00
2022-11-15T05:53:07.618Z,0.00
2022-11-15T05:54:07.768Z,0.00
2022-11-15T05:55:07.857Z,0.00
2022-11-15T05:56:08.009Z,0.00
2022-11-15T05:57:08.166Z,0.00
2022-11-15T05:58:08.264Z,0.00
2022-11-15T05:59:08.365Z,0.00
2022-11-15T06:00:08.480Z,0.00
2022-11-15T06:01:08.594Z,0.00
2022-11-15T06:02:08.754Z,0.00
2022-11-15T06:03:08.800Z,0.00
2022-11-15T06:04:08.959Z,0.00
2022-11-15T06:05:09.055Z,0.00
2022-11-15T06:06:13.669Z,0.00
2022-11-15T06:07:10.350Z,0.00
2022-11-15T06:08:09.422Z,0.00
2022-11-15T06:09:09.543Z,0.00
2022-11-15T06:10:09.777Z,0.00
2022-11-15T06:11:09.822Z,0.00
2022-11-15T06:12:09.950Z,0.00
2022-11-15T06:13:10.073Z,0.00
2022-11-15T06:14:10.235Z,0.00
2022-11-15T06:15:10.312Z,0.00
2022-11-15T06:16:10.400Z,0.00
2022-11-15T06:17:11.558Z,0.00
2022-11-15T06:18:10.720Z,0.00
2022-11-15T06:19:10.807Z,0.00
2022-11-15T06:20:10.962Z,0.00
2022-11-15T06:21:11.077Z,0.00
2022-11-15T06:22:11.223Z,0.00
2022-11-15T06:23:11.354Z,0.00
2022-11-15T06:24:11.457Z,0.00
2022-11-15T06:25:11.580Z,0.00
2022-11-15T06:26:11.710Z,0.00
2022-11-15T06:27:11.923Z,0.00
2022-11-15T06:28:11.987Z,0.00
2022-11-15T06:29:12.131Z,0.00
2022-11-15T06:30:12.326Z,0.00
2022-11-15T06:31:12.428Z,0.00
2022-11-15T06:32:12.573Z,0.00
2022-11-15T06:33:12.654Z,0.00
2022-11-15T06:34:12.800Z,0.00
2022-11-15T06:35:12.926Z,0.00
2022-11-15T06:36:17.308Z,0.00
2022-11-15T06:37:13.214Z,0.00
2022-11-15T06:38:13.297Z,0.00
2022-11-15T06:39:13.396Z,5.62
2022-11-15T06:40:13.537Z,5.62
2022-11-15T06:41:13.636Z,5.62
2022-11-15T06:42:13.768Z,5.62
2022-11-15T06:43:13.875Z,5.62
2022-11-15T06:44:13.985Z,5.62
2022-11-15T06:45:14.077Z,5.62
2022-11-15T06:46:14.185Z,5.62
2022-11-15T06:47:14.337Z,5.62
2022-11-15T06:48:14.424Z,5.62
2022-11-15T06:49:14.553Z,5.62
2022-11-15T06:50:14.715Z,5.62
2022-11-15T06:51:14.794Z,11.25
2022-11-15T06:52:14.907Z,11.25
2022-11-15T06:53:15.013Z,11.25
2022-11-15T06:54:15.105Z,11.25
2022-11-15T06:55:15.237Z,11.25
2022-11-15T06:56:15.414Z,11.25
2022-11-15T06:57:15.464Z,11.25
2022-11-15T06:58:15.578Z,16.88
2022-11-15T06:59:15.693Z,16.88
2022-11-15T07:00:15.820Z,16.88
2022-11-15T07:01:16.027Z,16.88
2022-11-15T07:02:16.042Z,16.88
2022-11-15T07:03:16.134Z,16.88
2022-11-15T07:04:16.243Z,22.50
2022-11-15T07:05:16.352Z,22.50
2022-11-15T07:06:16.479Z,22.50
2022-11-15T07:07:16.698Z,22.50
2022-11-15T07:08:16.720Z,28.12
2022-11-15T07:09:16.841Z,28.12
2022-11-15T07:10:17.029Z,28.12
2022-11-15T07:11:17.093Z,33.75
2022-11-15T07:12:17.162Z,33.75
2022-11-15T07:13:17.269Z,39.38
2022-11-15T07:14:17.401Z,39.38
2022-11-15T07:15:17.498Z,45.00
2022-11-15T07:16:17.637Z,45.00
2022-11-15T07:17:17.742Z,50.62
2022-11-15T07:18:17.847Z,50.62
2022-11-15T07:19:17.962Z,50.62
2022-11-15T07:20:18.069Z,56.25
2022-11-15T07:21:18.214Z,56.25
2022-11-15T07:22:18.306Z,56.25
2022-11-15T07:23:18.405Z,56.25
2022-11-15T07:24:18.507Z,61.88
2022-11-15T07:25:18.629Z,61.88
2022-11-15T07:26:18.768Z,67.50
2022-11-15T07:27:18.873Z,73.12
2022-11-15T07:28:18.965Z,84.38
2022-11-15T07:29:19.075Z,84.38
2022-11-15T07:30:19.260Z,84.38
2022-11-15T07:31:19.387Z,106.88
2022-11-15T07:32:19.454Z,112.50
2022-11-15T07:33:19.543Z,101.25
2022-11-15T07:34:19.657Z,95.62
2022-11-15T07:35:19.755Z,95.62
2022-11-15T07:36:19.905Z,90.00
2022-11-15T07:37:20.017Z,90.00
2022-11-15T07:38:20.115Z,90.00
2022-11-15T07:39:20.237Z,90.00
2022-11-15T07:40:20.331Z,95.62
2022-11-15T07:41:20.544Z,95.62
2022-11-15T07:42:20.563Z,101.25
2022-11-15T07:43:20.676Z,101.25
2022-11-15T07:44:20.782Z,106.88
2022-11-15T07:45:20.896Z,106.88
2022-11-15T07:46:21.043Z,112.50
2022-11-15T07:47:21.132Z,112.50
2022-11-15T07:48:21.307Z,118.12
2022-11-15T07:49:21.362Z,123.75
2022-11-15T07:50:21.572Z,129.38
2022-11-15T07:51:21.581Z,129.38
2022-11-15T07:52:21.701Z,129.38
2022-11-15T07:53:21.807Z,123.75
2022-11-15T07:54:21.902Z,129.38
2022-11-15T07:55:22.003Z,129.38
2022-11-15T07:56:22.229Z,129.38
2022-11-15T07:57:22.230Z,129.38
2022-11-15T07:58:22.339Z,129.38
2022-11-15T07:59:22.472Z,135.00
2022-11-15T08:00:22.578Z,135.00
2022-11-15T08:01:22.861Z,135.00
2022-11-15T08:02:27.624Z,140.62
2022-11-15T08:03:23.898Z,146.25
2022-11-15T08:04:23.117Z,146.25
2022-11-15T08:05:23.186Z,151.88
2022-11-15T08:06:23.310Z,151.88
2022-11-15T08:07:23.463Z,157.50
2022-11-15T08:08:23.510Z,157.50
2022-11-15T08:09:23.633Z,163.12
2022-11-15T08:10:23.780Z,163.12
2022-11-15T08:11:23.847Z,163.12
2022-11-15T08:12:24.026Z,163.12
2022-11-15T08:13:24.073Z,163.12
2022-11-15T08:14:24.177Z,163.12
2022-11-15T08:15:24.309Z,163.12
2022-11-15T08:16:24.409Z,163.12
2022-11-15T08:17:24.519Z,163.12
2022-11-15T08:18:24.650Z,163.12
2022-11-15T08:19:24.746Z,163.12
2022-11-15T08:20:24.850Z,163.12
2022-11-15T08:21:25.026Z,163.12
2022-11-15T08:22:25.087Z,163.12
2022-11-15T08:23:25.205Z,163.12
2022-11-15T08:24:25.305Z,163.12
2022-11-15T08:25:25.423Z,163.12
2022-11-15T08:26:25.594Z,163.12
2022-11-15T08:27:25.719Z,163.12
2022-11-15T08:28:25.833Z,163.12
2022-11-15T08:29:25.961Z,163.12
2022-11-15T08:30:26.161Z,168.75
2022-11-15T08:31:26.269Z,168.75
2022-11-15T08:32:26.375Z,168.75
2022-11-15T08:33:26.495Z,174.38
2022-11-15T08:34:26.595Z,174.38
2022-11-15T08:35:29.290Z,180.00
2022-11-15T08:36:26.862Z,180.00
2022-11-15T08:37:26.944Z,185.62
2022-11-15T08:38:27.072Z,185.62
2022-11-15T08:39:27.226Z,191.25
2022-11-15T08:40:27.342Z,196.88
2022-11-15T08:41:27.558Z,202.50
2022-11-15T08:42:27.642Z,208.12
2022-11-15T08:43:27.733Z,208.12
2022-11-15T08:44:27.868Z,219.38
2022-11-15T08:45:27.990Z,219.38
2022-11-15T08:46:28.160Z,219.38
2022-11-15T08:47:28.240Z,219.38
2022-11-15T08:48:28.489Z,225.00
2022-11-15T08:49:28.509Z,230.62
2022-11-15T08:50:28.720Z,230.62
2022-11-15T08:51:28.779Z,236.25
2022-11-15T08:52:28.881Z,236.25
2022-11-15T08:53:29.008Z,236.25
2022-11-15T08:54:29.149Z,236.25
2022-11-15T08:55:29.309Z,236.25
2022-11-15T08:56:29.460Z,236.25
2022-11-15T08:57:29.499Z,236.25
2022-11-15T08:58:29.899Z,236.25
2022-11-15T08:59:29.699Z,236.25
2022-11-15T09:00:29.836Z,236.25
2022-11-15T09:01:30.108Z,241.88
2022-11-15T09:02:30.151Z,241.88
2022-11-15T09:03:30.246Z,247.50
2022-11-15T09:04:30.365Z,247.50
2022-11-15T09:05:30.466Z,253.12
2022-11-15T09:06:30.605Z,253.12
2022-11-15T09:07:30.747Z,253.12
2022-11-15T09:08:47.931Z,253.12
2022-11-15T09:09:31.924Z,253.12
2022-11-15T09:10:31.163Z,253.12
2022-11-15T09:11:31.164Z,253.12
2022-11-15T09:12:31.265Z,253.12
2022-11-15T09:13:31.364Z,258.75
2022-11-15T09:14:31.461Z,258.75
2022-11-15T09:15:31.594Z,264.38
2022-11-15T09:16:31.789Z,264.38
2022-11-15T09:17:31.853Z,264.38
2022-11-15T09:18:32.272Z,270.00
2022-11-15T09:19:32.082Z,270.00
2022-11-15T09:20:32.232Z,264.38
2022-11-15T09:21:32.350Z,253.12
2022-11-15T09:22:32.446Z,230.62
2022-11-15T09:23:32.567Z,202.50
2022-11-15T09:24:32.692Z,191.25
2022-11-15T09:25:32.801Z,191.25
2022-11-15T09:26:32.963Z,191.25
2022-11-15T09:27:33.068Z,185.62
2022-11-15T09:28:33.569Z,180.00
2022-11-15T09:29:33.314Z,174.38
2022-11-15T09:30:33.461Z,174.38
2022-11-15T09:31:33.536Z,174.38
2022-11-15T09:32:38.800Z,174.38
2022-11-15T09:33:35.289Z,180.00
2022-11-15T09:34:33.915Z,180.00
2022-11-15T09:35:34.015Z,185.62
2022-11-15T09:36:34.132Z,180.00
2022-11-15T09:37:34.237Z,180.00
2022-11-15T09:38:35.012Z,185.62
2022-11-15T09:39:34.495Z,191.25
2022-11-15T09:40:34.659Z,191.25
2022-11-15T09:41:34.775Z,196.88
2022-11-15T09:42:34.867Z,196.88
2022-11-15T09:43:34.949Z,202.50
2022-11-15T09:44:35.090Z,208.12
2022-11-15T09:45:35.228Z,213.75
2022-11-15T09:46:35.352Z,213.75
2022-11-15T09:47:35.448Z,219.38
2022-11-15T09:48:35.589Z,219.38
2022-11-15T09:49:35.678Z,225.00
2022-11-15T09:50:35.905Z,236.25
2022-11-15T09:51:35.888Z,236.25
2022-11-15T09:52:36.037Z,236.25
2022-11-15T09:54:09.112Z,236.25
2022-11-15T09:54:52.600Z,236.25
2022-11-15T09:55:37.416Z,236.25
2022-11-15T09:56:36.525Z,236.25
2022-11-15T09:57:36.644Z,230.62
2022-11-15T09:58:36.785Z,230.62
2022-11-15T09:59:36.945Z,230.62
2022-11-15T10:00:52.704Z,230.62
2022-11-15T10:01:38.376Z,236.25
2022-11-15T10:02:37.325Z,236.25
2022-11-15T10:03:37.436Z,241.88
2022-11-15T10:04:37.555Z,241.88
2022-11-15T10:05:37.661Z,241.88
2022-11-15T10:06:37.812Z,247.50
2022-11-15T10:07:37.937Z,247.50
2022-11-15T10:08:38.038Z,253.12
2022-11-15T10:09:38.166Z,253.12
2022-11-15T10:10:38.292Z,253.12
2022-11-15T10:11:39.485Z,258.75
2022-11-15T10:12:38.525Z,258.75
2022-11-15T10:13:38.661Z,258.75
2022-11-15T10:14:38.831Z,253.12
2022-11-15T10:15:38.950Z,253.12
2022-11-15T10:16:39.111Z,253.12
2022-11-15T10:17:39.190Z,258.75
2022-11-15T10:18:39.323Z,258.75
2022-11-15T10:19:39.421Z,253.12
2022-11-15T10:20:39.510Z,253.12
2022-11-15T10:21:39.700Z,253.12
2022-11-15T10:22:39.781Z,258.75
2022-11-15T10:23:39.920Z,258.75
2022-11-15T10:24:40.062Z,270.00
2022-11-15T10:25:40.227Z,275.62
2022-11-15T10:26:40.374Z,275.62
2022-11-15T10:27:40.449Z,275.62
2022-11-15T10:28:40.598Z,281.25
2022-11-15T10:29:40.751Z,281.25
2022-11-15T10:30:40.935Z,286.88
2022-11-15T10:31:41.008Z,286.88
2022-11-15T10:32:41.126Z,286.88
2022-11-15T10:33:41.247Z,281.25
2022-11-15T10:34:41.378Z,286.88
2022-11-15T10:35:41.526Z,286.88
2022-11-15T10:36:43.905Z,286.88
2022-11-15T10:37:42.695Z,281.25
2022-11-15T10:38:41.827Z,298.12
2022-11-15T10:39:41.977Z,298.12
2022-11-15T10:40:42.124Z,292.50
2022-11-15T10:41:42.274Z,292.50
2022-11-15T10:42:42.362Z,298.12
2022-11-15T10:43:42.466Z,292.50
2022-11-15T10:44:42.614Z,292.50
2022-11-15T10:45:42.727Z,303.75
2022-11-15T10:46:47.410Z,315.00
2022-11-15T10:47:42.994Z,326.25
2022-11-15T10:48:43.107Z,343.12
2022-11-15T10:49:43.203Z,337.50
2022-11-15T10:50:43.367Z,354.38
2022-11-15T10:51:43.476Z,354.38
2022-11-15T10:52:43.514Z,360.00
2022-11-15T10:53:43.654Z,376.88
2022-11-15T10:54:43.787Z,376.88
2022-11-15T10:55:43.940Z,393.75
2022-11-15T10:56:44.080Z,393.75
2022-11-15T10:57:44.219Z,410.62
2022-11-15T10:58:44.312Z,427.50
2022-11-15T10:59:44.471Z,438.75
2022-11-15T11:00:44.565Z,438.75
2022-11-15T11:01:44.761Z,438.75
2022-11-15T11:02:44.863Z,438.75
2022-11-15T11:03:44.962Z,433.12
2022-11-15T11:04:45.059Z,427.50
2022-11-15T11:05:45.201Z,427.50
2022-11-15T11:06:45.454Z,421.88
2022-11-15T11:07:45.491Z,416.25
2022-11-15T11:08:45.589Z,405.00
2022-11-15T11:09:45.722Z,399.38
2022-11-15T11:10:51.455Z,388.12
2022-11-15T11:11:46.961Z,371.25
2022-11-15T11:12:46.091Z,354.38
2022-11-15T11:13:46.261Z,337.50
2022-11-15T11:14:46.373Z,286.88
2022-11-15T11:15:46.464Z,275.62
2022-11-15T11:16:46.648Z,286.88
2022-11-15T11:17:46.740Z,298.12
2022-11-15T11:18:46.838Z,298.12
2022-11-15T11:19:46.932Z,270.00
2022-11-15T11:20:47.053Z,258.75
2022-11-15T11:21:47.197Z,275.62
2022-11-15T11:22:47.286Z,298.12
2022-11-15T11:23:47.398Z,326.25
2022-11-15T11:24:47.491Z,371.25
2022-11-15T11:25:47.594Z,427.50
2022-11-15T11:26:50.578Z,472.50
2022-11-15T11:27:48.865Z,483.75
2022-11-15T11:28:47.963Z,466.88
2022-11-15T11:29:48.078Z,421.88
2022-11-15T11:30:48.288Z,371.25
2022-11-15T11:31:48.365Z,326.25
2022-11-15T11:32:52.535Z,309.38
2022-11-15T11:33:49.576Z,320.62
2022-11-15T11:34:48.697Z,348.75
2022-11-15T11:35:48.853Z,371.25
2022-11-15T11:36:48.969Z,371.25
2022-11-15T11:37:49.115Z,388.12
2022-11-15T11:38:49.193Z,405.00
2022-11-15T11:39:49.351Z,410.62
2022-11-15T11:40:49.454Z,421.88
2022-11-15T11:41:49.666Z,421.88
2022-11-15T11:42:49.712Z,421.88
2022-11-15T11:43:49.841Z,427.50
2022-11-15T11:44:49.944Z,433.12
2022-11-15T11:45:50.090Z,427.50
2022-11-15T11:46:50.241Z,416.25
2022-11-15T11:47:50.351Z,405.00
2022-11-15T11:48:50.433Z,410.62
2022-11-15T11:49:50.519Z,427.50
2022-11-15T11:50:50.701Z,444.38
2022-11-15T11:51:50.750Z,444.38
2022-11-15T11:52:50.923Z,427.50
2022-11-15T11:53:51.061Z,410.62
2022-11-15T11:54:51.131Z,416.25
2022-11-15T11:55:51.260Z,421.88
2022-11-15T11:56:51.419Z,444.38
2022-11-15T11:57:51.597Z,466.88
2022-11-15T11:58:51.644Z,483.75
2022-11-15T11:59:51.749Z,495.00
2022-11-15T12:00:51.863Z,506.25
2022-11-15T12:01:52.060Z,495.00
2022-11-15T12:02:52.250Z,472.50
2022-11-15T12:03:52.279Z,455.62
2022-11-15T12:04:52.398Z,427.50
2022-11-15T12:05:52.511Z,416.25
2022-11-15T12:06:52.650Z,433.12
2022-11-15T12:07:52.780Z,478.12
2022-11-15T12:08:52.874Z,506.25
2022-11-15T12:09:52.977Z,511.88
2022-11-15T12:10:53.087Z,472.50
2022-11-15T12:11:53.205Z,405.00
2022-11-15T12:12:53.374Z,343.12
2022-11-15T12:13:53.386Z,275.62
2022-11-15T12:14:53.527Z,241.88
2022-11-15T12:15:53.636Z,230.62
2022-11-15T12:16:53.748Z,236.25
2022-11-15T12:17:53.886Z,253.12
2022-11-15T12:18:54.004Z,281.25
2022-11-15T12:19:54.122Z,309.38
2022-11-15T12:20:54.230Z,331.88
2022-11-15T12:21:54.316Z,337.50
2022-11-15T12:22:54.498Z,320.62
2022-11-15T12:23:54.612Z,309.38
2022-11-15T12:24:54.737Z,309.38
2022-11-15T12:25:54.943Z,303.75
2022-11-15T12:26:55.019Z,303.75
2022-11-15T12:27:55.197Z,303.75
2022-11-15T12:29:06.778Z,298.12
2022-11-15T12:29:56.394Z,298.12
2022-11-15T12:30:55.495Z,292.50
2022-11-15T12:31:55.597Z,286.88
2022-11-15T12:32:55.816Z,292.50
2022-11-15T12:33:55.873Z,298.12
2022-11-15T12:34:55.973Z,331.88
2022-11-15T12:35:56.095Z,348.75
2022-11-15T12:36:56.211Z,354.38
2022-11-15T12:37:56.417Z,376.88
2022-11-15T12:38:56.532Z,405.00
2022-11-15T12:40:00.984Z,405.00
2022-11-15T12:40:57.702Z,393.75
2022-11-15T12:41:56.794Z,382.50
2022-11-15T12:42:56.931Z,382.50
2022-11-15T12:43:57.034Z,388.12
2022-11-15T12:44:57.205Z,393.75
2022-11-15T12:45:57.322Z,388.12
2022-11-15T12:46:57.371Z,388.12
2022-11-15T12:47:57.519Z,388.12
2022-11-15T12:48:57.602Z,371.25
2022-11-15T12:49:57.740Z,360.00
2022-11-15T12:50:57.816Z,360.00
2022-11-15T12:51:57.926Z,365.62
2022-11-15T12:52:58.073Z,365.62
2022-11-15T12:53:58.139Z,365.62
2022-11-15T12:54:58.281Z,348.75
2022-11-15T12:55:58.522Z,337.50
2022-11-15T12:56:58.569Z,326.25